<?xml version="1.0" encoding="UTF-8" standalone="no" ?>
<gpx xmlns="http://www.topografix.com/GPX/1/1" xmlns:xsi="http://www.w3.org/2001/XMLSchema-instance" xsi:schemaLocation="http://www.topografix.com/GPX/1/1 http://www.topografix.com/GPX/1/1/gpx.xsd" version="1.1" creator="VisuGPX - https://www.visugpx.com">
  <metadata>
    <name>24 Février</name>
    <desc><![CDATA[CLPutanges Grand Parcours 36 Kilomètres]]></desc>
  </metadata>
  <wpt lat="48.76395" lon="-0.24501">
    <ele>127</ele>
    <name><![CDATA[24 Février GP 36KM Vu]]></name>
    <type><![CDATA[Generic]]></type>
  </wpt>
  <trk>
    <name><![CDATA[24 Février GP 36KM Vu]]></name>
    <trkseg>
      <trkpt lat="48.76395" lon="-0.24501">
        <ele>127</ele>
        <time>2019-01-21T18:32:34Z</time>
      </trkpt>
      <trkpt lat="48.7639" lon="-0.24479">
        <ele>127.7</ele>
        <time>2019-01-21T18:32:39Z</time>
      </trkpt>
      <trkpt lat="48.76386" lon="-0.24423">
        <ele>127.8</ele>
        <time>2019-01-21T18:32:50Z</time>
      </trkpt>
      <trkpt lat="48.76385" lon="-0.24405">
        <ele>127.8</ele>
        <time>2019-01-21T18:33:05Z</time>
      </trkpt>
      <trkpt lat="48.76388" lon="-0.24368">
        <ele>128</ele>
        <time>2019-01-21T18:33:08Z</time>
      </trkpt>
      <trkpt lat="48.76396" lon="-0.24347">
        <ele>127.5</ele>
        <time>2019-01-21T18:33:21Z</time>
      </trkpt>
      <trkpt lat="48.76412" lon="-0.24323">
        <ele>128.1</ele>
        <time>2019-01-21T18:33:23Z</time>
      </trkpt>
      <trkpt lat="48.7643" lon="-0.24304">
        <ele>129.1</ele>
        <time>2019-01-21T18:33:37Z</time>
      </trkpt>
      <trkpt lat="48.76439" lon="-0.24296">
        <ele>129.6</ele>
        <time>2019-01-21T18:33:57Z</time>
      </trkpt>
      <trkpt lat="48.76464" lon="-0.24282">
        <ele>130.6</ele>
        <time>2019-01-21T18:34:17Z</time>
      </trkpt>
      <trkpt lat="48.76534" lon="-0.24253">
        <ele>133.4</ele>
        <time>2019-01-21T18:34:29Z</time>
      </trkpt>
      <trkpt lat="48.76545" lon="-0.24246">
        <ele>134</ele>
        <time>2019-01-21T18:34:42Z</time>
      </trkpt>
      <trkpt lat="48.7658" lon="-0.2422">
        <ele>135.4</ele>
        <time>2019-01-21T18:35:02Z</time>
      </trkpt>
      <trkpt lat="48.76611" lon="-0.24189">
        <ele>137.6</ele>
        <time>2019-01-21T18:35:07Z</time>
      </trkpt>
      <trkpt lat="48.76633" lon="-0.24162">
        <ele>137.5</ele>
        <time>2019-01-21T18:35:27Z</time>
      </trkpt>
      <trkpt lat="48.76663" lon="-0.24118">
        <ele>139.3</ele>
        <time>2019-01-21T18:35:44Z</time>
      </trkpt>
      <trkpt lat="48.76716" lon="-0.24038">
        <ele>142.7</ele>
        <time>2019-01-21T18:35:49Z</time>
      </trkpt>
      <trkpt lat="48.7673" lon="-0.24023">
        <ele>142.7</ele>
        <time>2019-01-21T18:36:06Z</time>
      </trkpt>
      <trkpt lat="48.76743" lon="-0.24015">
        <ele>141.8</ele>
        <time>2019-01-21T18:36:12Z</time>
      </trkpt>
      <trkpt lat="48.76754" lon="-0.24013">
        <ele>141.7</ele>
        <time>2019-01-21T18:36:26Z</time>
      </trkpt>
      <trkpt lat="48.76769" lon="-0.24024">
        <ele>144</ele>
        <time>2019-01-21T18:36:34Z</time>
      </trkpt>
      <trkpt lat="48.76779" lon="-0.24039">
        <ele>145.6</ele>
        <time>2019-01-21T18:36:48Z</time>
      </trkpt>
      <trkpt lat="48.76784" lon="-0.24056">
        <ele>146.9</ele>
        <time>2019-01-21T18:37:04Z</time>
      </trkpt>
      <trkpt lat="48.76787" lon="-0.24086">
        <ele>146.6</ele>
        <time>2019-01-21T18:37:06Z</time>
      </trkpt>
      <trkpt lat="48.76784" lon="-0.24111">
        <ele>146.7</ele>
        <time>2019-01-21T18:37:17Z</time>
      </trkpt>
      <trkpt lat="48.76772" lon="-0.24178">
        <ele>148.5</ele>
        <time>2019-01-21T18:37:19Z</time>
      </trkpt>
      <trkpt lat="48.76774" lon="-0.24234">
        <ele>150.1</ele>
        <time>2019-01-21T18:37:22Z</time>
      </trkpt>
      <trkpt lat="48.76782" lon="-0.24284">
        <ele>151.5</ele>
        <time>2019-01-21T18:37:33Z</time>
      </trkpt>
      <trkpt lat="48.76796" lon="-0.24331">
        <ele>153.1</ele>
        <time>2019-01-21T18:37:44Z</time>
      </trkpt>
      <trkpt lat="48.76818" lon="-0.2438">
        <ele>155.9</ele>
        <time>2019-01-21T18:37:56Z</time>
      </trkpt>
      <trkpt lat="48.76904" lon="-0.24546">
        <ele>160.1</ele>
        <time>2019-01-21T18:38:10Z</time>
      </trkpt>
      <trkpt lat="48.76928" lon="-0.24579">
        <ele>161.4</ele>
        <time>2019-01-21T18:38:18Z</time>
      </trkpt>
      <trkpt lat="48.76953" lon="-0.24606">
        <ele>162.4</ele>
        <time>2019-01-21T18:38:25Z</time>
      </trkpt>
      <trkpt lat="48.77073" lon="-0.24693">
        <ele>169</ele>
        <time>2019-01-21T18:38:39Z</time>
      </trkpt>
      <trkpt lat="48.77143" lon="-0.24744">
        <ele>172.9</ele>
        <time>2019-01-21T18:38:42Z</time>
      </trkpt>
      <trkpt lat="48.77198" lon="-0.24792">
        <ele>174.9</ele>
        <time>2019-01-21T18:38:51Z</time>
      </trkpt>
      <trkpt lat="48.77254" lon="-0.24858">
        <ele>178.6</ele>
        <time>2019-01-21T18:39:11Z</time>
      </trkpt>
      <trkpt lat="48.77292" lon="-0.24914">
        <ele>179.7</ele>
        <time>2019-01-21T18:39:25Z</time>
      </trkpt>
      <trkpt lat="48.77322" lon="-0.24945">
        <ele>182.1</ele>
        <time>2019-01-21T18:39:36Z</time>
      </trkpt>
      <trkpt lat="48.7735" lon="-0.24959">
        <ele>184</ele>
        <time>2019-01-21T18:39:45Z</time>
      </trkpt>
      <trkpt lat="48.77378" lon="-0.24963">
        <ele>184.7</ele>
        <time>2019-01-21T18:39:47Z</time>
      </trkpt>
      <trkpt lat="48.77428" lon="-0.24954">
        <ele>186.7</ele>
        <time>2019-01-21T18:39:58Z</time>
      </trkpt>
      <trkpt lat="48.77448" lon="-0.24953">
        <ele>188</ele>
        <time>2019-01-21T18:40:07Z</time>
      </trkpt>
      <trkpt lat="48.77465" lon="-0.24956">
        <ele>189</ele>
        <time>2019-01-21T18:40:11Z</time>
      </trkpt>
      <trkpt lat="48.77509" lon="-0.24979">
        <ele>191.4</ele>
        <time>2019-01-21T18:40:21Z</time>
      </trkpt>
      <trkpt lat="48.77605" lon="-0.25067">
        <ele>195.7</ele>
        <time>2019-01-21T18:40:23Z</time>
      </trkpt>
      <trkpt lat="48.77654" lon="-0.25107">
        <ele>197.7</ele>
        <time>2019-01-21T18:40:39Z</time>
      </trkpt>
      <trkpt lat="48.77692" lon="-0.25125">
        <ele>197.9</ele>
        <time>2019-01-21T18:40:41Z</time>
      </trkpt>
      <trkpt lat="48.77725" lon="-0.25129">
        <ele>198.7</ele>
        <time>2019-01-21T18:40:54Z</time>
      </trkpt>
      <trkpt lat="48.77766" lon="-0.25123">
        <ele>197.8</ele>
        <time>2019-01-21T18:40:57Z</time>
      </trkpt>
      <trkpt lat="48.77809" lon="-0.25091">
        <ele>197.9</ele>
        <time>2019-01-21T18:41:12Z</time>
      </trkpt>
      <trkpt lat="48.77881" lon="-0.25015">
        <ele>198.7</ele>
        <time>2019-01-21T18:41:22Z</time>
      </trkpt>
      <trkpt lat="48.77924" lon="-0.24975">
        <ele>199.3</ele>
        <time>2019-01-21T18:41:29Z</time>
      </trkpt>
      <trkpt lat="48.77985" lon="-0.24928">
        <ele>199.3</ele>
        <time>2019-01-21T18:41:47Z</time>
      </trkpt>
      <trkpt lat="48.78062" lon="-0.24878">
        <ele>198.7</ele>
        <time>2019-01-21T18:42:03Z</time>
      </trkpt>
      <trkpt lat="48.78106" lon="-0.24855">
        <ele>199.4</ele>
        <time>2019-01-21T18:42:17Z</time>
      </trkpt>
      <trkpt lat="48.78549" lon="-0.24677">
        <ele>217.5</ele>
        <time>2019-01-21T18:42:33Z</time>
      </trkpt>
      <trkpt lat="48.78702" lon="-0.24616">
        <ele>222.3</ele>
        <time>2019-01-21T18:42:39Z</time>
      </trkpt>
      <trkpt lat="48.78859" lon="-0.24564">
        <ele>225.9</ele>
        <time>2019-01-21T18:42:48Z</time>
      </trkpt>
      <trkpt lat="48.78978" lon="-0.24534">
        <ele>228</ele>
        <time>2019-01-21T18:42:58Z</time>
      </trkpt>
      <trkpt lat="48.79015" lon="-0.24528">
        <ele>228.5</ele>
        <time>2019-01-21T18:43:00Z</time>
      </trkpt>
      <trkpt lat="48.79006" lon="-0.24399">
        <ele>227.2</ele>
        <time>2019-01-21T18:43:16Z</time>
      </trkpt>
      <trkpt lat="48.78989" lon="-0.24286">
        <ele>225.7</ele>
        <time>2019-01-21T18:43:24Z</time>
      </trkpt>
      <trkpt lat="48.78961" lon="-0.24126">
        <ele>225</ele>
        <time>2019-01-21T18:43:44Z</time>
      </trkpt>
      <trkpt lat="48.78932" lon="-0.23959">
        <ele>225</ele>
        <time>2019-01-21T18:43:52Z</time>
      </trkpt>
      <trkpt lat="48.79084" lon="-0.238">
        <ele>227</ele>
        <time>2019-01-21T18:44:01Z</time>
      </trkpt>
      <trkpt lat="48.79243" lon="-0.23616">
        <ele>229.7</ele>
        <time>2019-01-21T18:44:18Z</time>
      </trkpt>
      <trkpt lat="48.79408" lon="-0.23372">
        <ele>230.7</ele>
        <time>2019-01-21T18:44:26Z</time>
      </trkpt>
      <trkpt lat="48.79502" lon="-0.23234">
        <ele>231.6</ele>
        <time>2019-01-21T18:44:43Z</time>
      </trkpt>
      <trkpt lat="48.79544" lon="-0.23148">
        <ele>231</ele>
        <time>2019-01-21T18:45:00Z</time>
      </trkpt>
      <trkpt lat="48.79582" lon="-0.23043">
        <ele>230</ele>
        <time>2019-01-21T18:45:19Z</time>
      </trkpt>
      <trkpt lat="48.79606" lon="-0.22933">
        <ele>228.9</ele>
        <time>2019-01-21T18:45:38Z</time>
      </trkpt>
      <trkpt lat="48.79663" lon="-0.22603">
        <ele>225.1</ele>
        <time>2019-01-21T18:45:54Z</time>
      </trkpt>
      <trkpt lat="48.79672" lon="-0.22567">
        <ele>223.9</ele>
        <time>2019-01-21T18:46:14Z</time>
      </trkpt>
      <trkpt lat="48.7969" lon="-0.22527">
        <ele>223.1</ele>
        <time>2019-01-21T18:46:20Z</time>
      </trkpt>
      <trkpt lat="48.79707" lon="-0.22503">
        <ele>221.6</ele>
        <time>2019-01-21T18:46:34Z</time>
      </trkpt>
      <trkpt lat="48.79735" lon="-0.22486">
        <ele>220.3</ele>
        <time>2019-01-21T18:46:37Z</time>
      </trkpt>
      <trkpt lat="48.7979" lon="-0.22469">
        <ele>216.3</ele>
        <time>2019-01-21T18:46:44Z</time>
      </trkpt>
      <trkpt lat="48.79847" lon="-0.22463">
        <ele>212.7</ele>
        <time>2019-01-21T18:46:53Z</time>
      </trkpt>
      <trkpt lat="48.79861" lon="-0.22459">
        <ele>212</ele>
        <time>2019-01-21T18:47:01Z</time>
      </trkpt>
      <trkpt lat="48.79885" lon="-0.22448">
        <ele>210.3</ele>
        <time>2019-01-21T18:47:14Z</time>
      </trkpt>
      <trkpt lat="48.79892" lon="-0.22435">
        <ele>209.7</ele>
        <time>2019-01-21T18:47:31Z</time>
      </trkpt>
      <trkpt lat="48.79896" lon="-0.22423">
        <ele>209.3</ele>
        <time>2019-01-21T18:47:46Z</time>
      </trkpt>
      <trkpt lat="48.79889" lon="-0.22252">
        <ele>206.1</ele>
        <time>2019-01-21T18:47:57Z</time>
      </trkpt>
      <trkpt lat="48.7991" lon="-0.22082">
        <ele>198.9</ele>
        <time>2019-01-21T18:48:10Z</time>
      </trkpt>
      <trkpt lat="48.79945" lon="-0.21879">
        <ele>189.3</ele>
        <time>2019-01-21T18:48:17Z</time>
      </trkpt>
      <trkpt lat="48.79986" lon="-0.21632">
        <ele>181.3</ele>
        <time>2019-01-21T18:48:23Z</time>
      </trkpt>
      <trkpt lat="48.80004" lon="-0.21428">
        <ele>177.5</ele>
        <time>2019-01-21T18:48:34Z</time>
      </trkpt>
      <trkpt lat="48.80098" lon="-0.21222">
        <ele>176.5</ele>
        <time>2019-01-21T18:48:37Z</time>
      </trkpt>
      <trkpt lat="48.80101" lon="-0.21162">
        <ele>176</ele>
        <time>2019-01-21T18:48:50Z</time>
      </trkpt>
      <trkpt lat="48.80093" lon="-0.21063">
        <ele>174.5</ele>
        <time>2019-01-21T18:48:52Z</time>
      </trkpt>
      <trkpt lat="48.80105" lon="-0.2094">
        <ele>171.8</ele>
        <time>2019-01-21T18:49:10Z</time>
      </trkpt>
      <trkpt lat="48.80114" lon="-0.20887">
        <ele>172.1</ele>
        <time>2019-01-21T18:49:21Z</time>
      </trkpt>
      <trkpt lat="48.80126" lon="-0.2085">
        <ele>173.6</ele>
        <time>2019-01-21T18:49:36Z</time>
      </trkpt>
      <trkpt lat="48.80136" lon="-0.20831">
        <ele>175</ele>
        <time>2019-01-21T18:49:53Z</time>
      </trkpt>
      <trkpt lat="48.80139" lon="-0.20818">
        <ele>175.6</ele>
        <time>2019-01-21T18:49:58Z</time>
      </trkpt>
      <trkpt lat="48.80135" lon="-0.20638">
        <ele>179</ele>
        <time>2019-01-21T18:50:13Z</time>
      </trkpt>
      <trkpt lat="48.80149" lon="-0.20385">
        <ele>180.4</ele>
        <time>2019-01-21T18:50:29Z</time>
      </trkpt>
      <trkpt lat="48.8016" lon="-0.2013">
        <ele>183.8</ele>
        <time>2019-01-21T18:50:48Z</time>
      </trkpt>
      <trkpt lat="48.80181" lon="-0.20007">
        <ele>185.5</ele>
        <time>2019-01-21T18:51:08Z</time>
      </trkpt>
      <trkpt lat="48.80184" lon="-0.19984">
        <ele>185.8</ele>
        <time>2019-01-21T18:51:26Z</time>
      </trkpt>
      <trkpt lat="48.8024" lon="-0.19782">
        <ele>187.9</ele>
        <time>2019-01-21T18:51:35Z</time>
      </trkpt>
      <trkpt lat="48.80334" lon="-0.19484">
        <ele>186</ele>
        <time>2019-01-21T18:51:49Z</time>
      </trkpt>
      <trkpt lat="48.80514" lon="-0.1925">
        <ele>172</ele>
        <time>2019-01-21T18:52:01Z</time>
      </trkpt>
      <trkpt lat="48.80556" lon="-0.19154">
        <ele>171.9</ele>
        <time>2019-01-21T18:52:16Z</time>
      </trkpt>
      <trkpt lat="48.80629" lon="-0.18903">
        <ele>176.8</ele>
        <time>2019-01-21T18:52:22Z</time>
      </trkpt>
      <trkpt lat="48.80768" lon="-0.18405">
        <ele>188.3</ele>
        <time>2019-01-21T18:52:31Z</time>
      </trkpt>
      <trkpt lat="48.80776" lon="-0.18302">
        <ele>189.9</ele>
        <time>2019-01-21T18:52:36Z</time>
      </trkpt>
      <trkpt lat="48.80788" lon="-0.18231">
        <ele>190.7</ele>
        <time>2019-01-21T18:52:46Z</time>
      </trkpt>
      <trkpt lat="48.80815" lon="-0.18139">
        <ele>191.6</ele>
        <time>2019-01-21T18:52:48Z</time>
      </trkpt>
      <trkpt lat="48.80866" lon="-0.1802">
        <ele>193.1</ele>
        <time>2019-01-21T18:53:00Z</time>
      </trkpt>
      <trkpt lat="48.80939" lon="-0.17834">
        <ele>193.6</ele>
        <time>2019-01-21T18:53:17Z</time>
      </trkpt>
      <trkpt lat="48.81027" lon="-0.17607">
        <ele>196.8</ele>
        <time>2019-01-21T18:53:20Z</time>
      </trkpt>
      <trkpt lat="48.81197" lon="-0.17175">
        <ele>199.1</ele>
        <time>2019-01-21T18:53:29Z</time>
      </trkpt>
      <trkpt lat="48.81247" lon="-0.17029">
        <ele>200.9</ele>
        <time>2019-01-21T18:53:34Z</time>
      </trkpt>
      <trkpt lat="48.81367" lon="-0.17064">
        <ele>204.2</ele>
        <time>2019-01-21T18:53:43Z</time>
      </trkpt>
      <trkpt lat="48.81499" lon="-0.17077">
        <ele>207</ele>
        <time>2019-01-21T18:54:00Z</time>
      </trkpt>
      <trkpt lat="48.81554" lon="-0.17082">
        <ele>208</ele>
        <time>2019-01-21T18:54:12Z</time>
      </trkpt>
      <trkpt lat="48.81646" lon="-0.17106">
        <ele>206.7</ele>
        <time>2019-01-21T18:54:30Z</time>
      </trkpt>
      <trkpt lat="48.81843" lon="-0.17166">
        <ele>201.4</ele>
        <time>2019-01-21T18:54:39Z</time>
      </trkpt>
      <trkpt lat="48.81875" lon="-0.17169">
        <ele>200</ele>
        <time>2019-01-21T18:54:47Z</time>
      </trkpt>
      <trkpt lat="48.8203" lon="-0.17158">
        <ele>196.3</ele>
        <time>2019-01-21T18:54:56Z</time>
      </trkpt>
      <trkpt lat="48.82128" lon="-0.17158">
        <ele>194.3</ele>
        <time>2019-01-21T18:55:13Z</time>
      </trkpt>
      <trkpt lat="48.82129" lon="-0.16867">
        <ele>196.1</ele>
        <time>2019-01-21T18:55:26Z</time>
      </trkpt>
      <trkpt lat="48.82128" lon="-0.16814">
        <ele>195.6</ele>
        <time>2019-01-21T18:55:37Z</time>
      </trkpt>
      <trkpt lat="48.82069" lon="-0.1654">
        <ele>193.5</ele>
        <time>2019-01-21T18:55:52Z</time>
      </trkpt>
      <trkpt lat="48.81946" lon="-0.16062">
        <ele>201.9</ele>
        <time>2019-01-21T18:55:59Z</time>
      </trkpt>
      <trkpt lat="48.81837" lon="-0.15583">
        <ele>206</ele>
        <time>2019-01-21T18:56:18Z</time>
      </trkpt>
      <trkpt lat="48.81802" lon="-0.15428">
        <ele>208.1</ele>
        <time>2019-01-21T18:56:29Z</time>
      </trkpt>
      <trkpt lat="48.81417" lon="-0.13809">
        <ele>216.9</ele>
        <time>2019-01-21T18:56:47Z</time>
      </trkpt>
      <trkpt lat="48.81389" lon="-0.13681">
        <ele>218.5</ele>
        <time>2019-01-21T18:56:59Z</time>
      </trkpt>
      <trkpt lat="48.8138" lon="-0.13619">
        <ele>219.1</ele>
        <time>2019-01-21T18:57:03Z</time>
      </trkpt>
      <trkpt lat="48.8137" lon="-0.13602">
        <ele>218.9</ele>
        <time>2019-01-21T18:57:05Z</time>
      </trkpt>
      <trkpt lat="48.81375" lon="-0.13573">
        <ele>220.2</ele>
        <time>2019-01-21T18:57:08Z</time>
      </trkpt>
      <trkpt lat="48.81372" lon="-0.13535">
        <ele>221.4</ele>
        <time>2019-01-21T18:57:24Z</time>
      </trkpt>
      <trkpt lat="48.81356" lon="-0.13441">
        <ele>224.8</ele>
        <time>2019-01-21T18:57:40Z</time>
      </trkpt>
      <trkpt lat="48.81329" lon="-0.13273">
        <ele>229.7</ele>
        <time>2019-01-21T18:57:49Z</time>
      </trkpt>
      <trkpt lat="48.81319" lon="-0.13179">
        <ele>233.1</ele>
        <time>2019-01-21T18:57:52Z</time>
      </trkpt>
      <trkpt lat="48.81281" lon="-0.13075">
        <ele>235.5</ele>
        <time>2019-01-21T18:58:04Z</time>
      </trkpt>
      <trkpt lat="48.81258" lon="-0.12968">
        <ele>236.7</ele>
        <time>2019-01-21T18:58:22Z</time>
      </trkpt>
      <trkpt lat="48.81251" lon="-0.12943">
        <ele>237.1</ele>
        <time>2019-01-21T18:58:36Z</time>
      </trkpt>
      <trkpt lat="48.81244" lon="-0.12926">
        <ele>236.9</ele>
        <time>2019-01-21T18:58:56Z</time>
      </trkpt>
      <trkpt lat="48.81234" lon="-0.12905">
        <ele>236.4</ele>
        <time>2019-01-21T18:59:03Z</time>
      </trkpt>
      <trkpt lat="48.81203" lon="-0.12852">
        <ele>235.7</ele>
        <time>2019-01-21T18:59:09Z</time>
      </trkpt>
      <trkpt lat="48.81189" lon="-0.12819">
        <ele>237.5</ele>
        <time>2019-01-21T18:59:17Z</time>
      </trkpt>
      <trkpt lat="48.81179" lon="-0.12777">
        <ele>238.6</ele>
        <time>2019-01-21T18:59:29Z</time>
      </trkpt>
      <trkpt lat="48.81176" lon="-0.12758">
        <ele>238.7</ele>
        <time>2019-01-21T18:59:44Z</time>
      </trkpt>
      <trkpt lat="48.81173" lon="-0.12717">
        <ele>238</ele>
        <time>2019-01-21T18:59:47Z</time>
      </trkpt>
      <trkpt lat="48.81163" lon="-0.12524">
        <ele>235.2</ele>
        <time>2019-01-21T18:59:59Z</time>
      </trkpt>
      <trkpt lat="48.81152" lon="-0.1246">
        <ele>232.4</ele>
        <time>2019-01-21T19:00:16Z</time>
      </trkpt>
      <trkpt lat="48.81121" lon="-0.12337">
        <ele>229.3</ele>
        <time>2019-01-21T19:00:30Z</time>
      </trkpt>
      <trkpt lat="48.81105" lon="-0.12256">
        <ele>228.6</ele>
        <time>2019-01-21T19:00:37Z</time>
      </trkpt>
      <trkpt lat="48.81101" lon="-0.12226">
        <ele>228.3</ele>
        <time>2019-01-21T19:00:44Z</time>
      </trkpt>
      <trkpt lat="48.8111" lon="-0.12183">
        <ele>228.9</ele>
        <time>2019-01-21T19:00:56Z</time>
      </trkpt>
      <trkpt lat="48.81113" lon="-0.12138">
        <ele>228.1</ele>
        <time>2019-01-21T19:01:15Z</time>
      </trkpt>
      <trkpt lat="48.81112" lon="-0.12088">
        <ele>227.2</ele>
        <time>2019-01-21T19:01:33Z</time>
      </trkpt>
      <trkpt lat="48.81104" lon="-0.12026">
        <ele>225.6</ele>
        <time>2019-01-21T19:01:35Z</time>
      </trkpt>
      <trkpt lat="48.81098" lon="-0.11971">
        <ele>224.5</ele>
        <time>2019-01-21T19:01:45Z</time>
      </trkpt>
      <trkpt lat="48.811" lon="-0.11929">
        <ele>223</ele>
        <time>2019-01-21T19:02:02Z</time>
      </trkpt>
      <trkpt lat="48.8112" lon="-0.11847">
        <ele>222</ele>
        <time>2019-01-21T19:02:07Z</time>
      </trkpt>
      <trkpt lat="48.81131" lon="-0.11774">
        <ele>222.7</ele>
        <time>2019-01-21T19:02:12Z</time>
      </trkpt>
      <trkpt lat="48.81131" lon="-0.11689">
        <ele>224.2</ele>
        <time>2019-01-21T19:02:16Z</time>
      </trkpt>
      <trkpt lat="48.81133" lon="-0.11604">
        <ele>225.4</ele>
        <time>2019-01-21T19:02:32Z</time>
      </trkpt>
      <trkpt lat="48.81014" lon="-0.11645">
        <ele>217.5</ele>
        <time>2019-01-21T19:02:49Z</time>
      </trkpt>
      <trkpt lat="48.80965" lon="-0.11656">
        <ele>214.9</ele>
        <time>2019-01-21T19:03:09Z</time>
      </trkpt>
      <trkpt lat="48.80896" lon="-0.11659">
        <ele>211.3</ele>
        <time>2019-01-21T19:03:25Z</time>
      </trkpt>
      <trkpt lat="48.80801" lon="-0.11639">
        <ele>206.8</ele>
        <time>2019-01-21T19:03:40Z</time>
      </trkpt>
      <trkpt lat="48.80675" lon="-0.11604">
        <ele>202.8</ele>
        <time>2019-01-21T19:03:56Z</time>
      </trkpt>
      <trkpt lat="48.80566" lon="-0.11646">
        <ele>204.2</ele>
        <time>2019-01-21T19:04:10Z</time>
      </trkpt>
      <trkpt lat="48.80417" lon="-0.11711">
        <ele>202</ele>
        <time>2019-01-21T19:04:16Z</time>
      </trkpt>
      <trkpt lat="48.80371" lon="-0.11715">
        <ele>201.4</ele>
        <time>2019-01-21T19:04:30Z</time>
      </trkpt>
      <trkpt lat="48.80177" lon="-0.11703">
        <ele>199.3</ele>
        <time>2019-01-21T19:04:50Z</time>
      </trkpt>
      <trkpt lat="48.80054" lon="-0.11685">
        <ele>198</ele>
        <time>2019-01-21T19:04:56Z</time>
      </trkpt>
      <trkpt lat="48.79768" lon="-0.11651">
        <ele>193.8</ele>
        <time>2019-01-21T19:05:15Z</time>
      </trkpt>
      <trkpt lat="48.79587" lon="-0.11621">
        <ele>193</ele>
        <time>2019-01-21T19:05:17Z</time>
      </trkpt>
      <trkpt lat="48.79497" lon="-0.116">
        <ele>192</ele>
        <time>2019-01-21T19:05:27Z</time>
      </trkpt>
      <trkpt lat="48.79462" lon="-0.11597">
        <ele>191.8</ele>
        <time>2019-01-21T19:05:38Z</time>
      </trkpt>
      <trkpt lat="48.79382" lon="-0.116">
        <ele>190.9</ele>
        <time>2019-01-21T19:05:49Z</time>
      </trkpt>
      <trkpt lat="48.7933" lon="-0.11595">
        <ele>190.9</ele>
        <time>2019-01-21T19:06:08Z</time>
      </trkpt>
      <trkpt lat="48.79235" lon="-0.11575">
        <ele>189.3</ele>
        <time>2019-01-21T19:06:24Z</time>
      </trkpt>
      <trkpt lat="48.79051" lon="-0.11512">
        <ele>186.4</ele>
        <time>2019-01-21T19:06:39Z</time>
      </trkpt>
      <trkpt lat="48.78983" lon="-0.11481">
        <ele>185.4</ele>
        <time>2019-01-21T19:06:48Z</time>
      </trkpt>
      <trkpt lat="48.78902" lon="-0.1143">
        <ele>182.5</ele>
        <time>2019-01-21T19:06:56Z</time>
      </trkpt>
      <trkpt lat="48.78838" lon="-0.11385">
        <ele>180.2</ele>
        <time>2019-01-21T19:07:10Z</time>
      </trkpt>
      <trkpt lat="48.78732" lon="-0.11335">
        <ele>175</ele>
        <time>2019-01-21T19:07:23Z</time>
      </trkpt>
      <trkpt lat="48.78697" lon="-0.11301">
        <ele>175</ele>
        <time>2019-01-21T19:07:32Z</time>
      </trkpt>
      <trkpt lat="48.78677" lon="-0.11285">
        <ele>175</ele>
        <time>2019-01-21T19:07:46Z</time>
      </trkpt>
      <trkpt lat="48.78647" lon="-0.11261">
        <ele>175.9</ele>
        <time>2019-01-21T19:08:00Z</time>
      </trkpt>
      <trkpt lat="48.7854" lon="-0.1122">
        <ele>180.2</ele>
        <time>2019-01-21T19:08:03Z</time>
      </trkpt>
      <trkpt lat="48.78531" lon="-0.11208">
        <ele>180.4</ele>
        <time>2019-01-21T19:08:20Z</time>
      </trkpt>
      <trkpt lat="48.78485" lon="-0.11122">
        <ele>182.9</ele>
        <time>2019-01-21T19:08:35Z</time>
      </trkpt>
      <trkpt lat="48.78396" lon="-0.11014">
        <ele>186.4</ele>
        <time>2019-01-21T19:08:53Z</time>
      </trkpt>
      <trkpt lat="48.78363" lon="-0.10992">
        <ele>186.9</ele>
        <time>2019-01-21T19:09:05Z</time>
      </trkpt>
      <trkpt lat="48.78363" lon="-0.10987">
        <ele>187</ele>
        <time>2019-01-21T19:09:16Z</time>
      </trkpt>
      <trkpt lat="48.78314" lon="-0.10895">
        <ele>187.1</ele>
        <time>2019-01-21T19:09:21Z</time>
      </trkpt>
      <trkpt lat="48.78147" lon="-0.10597">
        <ele>183</ele>
        <time>2019-01-21T19:09:35Z</time>
      </trkpt>
      <trkpt lat="48.78035" lon="-0.10372">
        <ele>182</ele>
        <time>2019-01-21T19:09:54Z</time>
      </trkpt>
      <trkpt lat="48.77814" lon="-0.09918">
        <ele>178.3</ele>
        <time>2019-01-21T19:10:01Z</time>
      </trkpt>
      <trkpt lat="48.77675" lon="-0.09633">
        <ele>175.1</ele>
        <time>2019-01-21T19:10:17Z</time>
      </trkpt>
      <trkpt lat="48.77644" lon="-0.09552">
        <ele>175.7</ele>
        <time>2019-01-21T19:10:26Z</time>
      </trkpt>
      <trkpt lat="48.77546" lon="-0.09239">
        <ele>174.3</ele>
        <time>2019-01-21T19:10:46Z</time>
      </trkpt>
      <trkpt lat="48.7749" lon="-0.09094">
        <ele>172.1</ele>
        <time>2019-01-21T19:11:04Z</time>
      </trkpt>
      <trkpt lat="48.77453" lon="-0.09013">
        <ele>170.2</ele>
        <time>2019-01-21T19:11:10Z</time>
      </trkpt>
      <trkpt lat="48.77423" lon="-0.08971">
        <ele>169</ele>
        <time>2019-01-21T19:11:21Z</time>
      </trkpt>
      <trkpt lat="48.77414" lon="-0.08956">
        <ele>168.5</ele>
        <time>2019-01-21T19:11:41Z</time>
      </trkpt>
      <trkpt lat="48.77382" lon="-0.08843">
        <ele>166.2</ele>
        <time>2019-01-21T19:11:51Z</time>
      </trkpt>
      <trkpt lat="48.7737" lon="-0.0882">
        <ele>165.7</ele>
        <time>2019-01-21T19:12:09Z</time>
      </trkpt>
      <trkpt lat="48.77353" lon="-0.08807">
        <ele>165.3</ele>
        <time>2019-01-21T19:12:29Z</time>
      </trkpt>
      <trkpt lat="48.77344" lon="-0.08803">
        <ele>165.7</ele>
        <time>2019-01-21T19:12:42Z</time>
      </trkpt>
      <trkpt lat="48.77325" lon="-0.08695">
        <ele>167.3</ele>
        <time>2019-01-21T19:12:45Z</time>
      </trkpt>
      <trkpt lat="48.77314" lon="-0.08676">
        <ele>167.9</ele>
        <time>2019-01-21T19:12:54Z</time>
      </trkpt>
      <trkpt lat="48.77307" lon="-0.08668">
        <ele>168</ele>
        <time>2019-01-21T19:12:59Z</time>
      </trkpt>
      <trkpt lat="48.77261" lon="-0.08648">
        <ele>169.3</ele>
        <time>2019-01-21T19:13:07Z</time>
      </trkpt>
      <trkpt lat="48.77253" lon="-0.08637">
        <ele>169.2</ele>
        <time>2019-01-21T19:13:16Z</time>
      </trkpt>
      <trkpt lat="48.77248" lon="-0.08622">
        <ele>170.3</ele>
        <time>2019-01-21T19:13:23Z</time>
      </trkpt>
      <trkpt lat="48.77247" lon="-0.08604">
        <ele>171</ele>
        <time>2019-01-21T19:13:30Z</time>
      </trkpt>
      <trkpt lat="48.77247" lon="-0.08545">
        <ele>170.7</ele>
        <time>2019-01-21T19:13:35Z</time>
      </trkpt>
      <trkpt lat="48.77243" lon="-0.08527">
        <ele>170.2</ele>
        <time>2019-01-21T19:13:49Z</time>
      </trkpt>
      <trkpt lat="48.77238" lon="-0.08515">
        <ele>170.4</ele>
        <time>2019-01-21T19:14:00Z</time>
      </trkpt>
      <trkpt lat="48.77233" lon="-0.08508">
        <ele>170.6</ele>
        <time>2019-01-21T19:14:19Z</time>
      </trkpt>
      <trkpt lat="48.77189" lon="-0.08478">
        <ele>171.2</ele>
        <time>2019-01-21T19:14:39Z</time>
      </trkpt>
      <trkpt lat="48.77072" lon="-0.08369">
        <ele>172.1</ele>
        <time>2019-01-21T19:14:57Z</time>
      </trkpt>
      <trkpt lat="48.76981" lon="-0.08284">
        <ele>171.5</ele>
        <time>2019-01-21T19:15:11Z</time>
      </trkpt>
      <trkpt lat="48.76958" lon="-0.08265">
        <ele>171</ele>
        <time>2019-01-21T19:15:18Z</time>
      </trkpt>
      <trkpt lat="48.76909" lon="-0.0846">
        <ele>172.3</ele>
        <time>2019-01-21T19:15:37Z</time>
      </trkpt>
      <trkpt lat="48.76897" lon="-0.08518">
        <ele>172.3</ele>
        <time>2019-01-21T19:15:44Z</time>
      </trkpt>
      <trkpt lat="48.76889" lon="-0.08572">
        <ele>172.6</ele>
        <time>2019-01-21T19:15:49Z</time>
      </trkpt>
      <trkpt lat="48.76883" lon="-0.08643">
        <ele>172.8</ele>
        <time>2019-01-21T19:16:03Z</time>
      </trkpt>
      <trkpt lat="48.76875" lon="-0.08734">
        <ele>172.5</ele>
        <time>2019-01-21T19:16:09Z</time>
      </trkpt>
      <trkpt lat="48.76859" lon="-0.0883">
        <ele>172.9</ele>
        <time>2019-01-21T19:16:23Z</time>
      </trkpt>
      <trkpt lat="48.76836" lon="-0.0893">
        <ele>173.5</ele>
        <time>2019-01-21T19:16:29Z</time>
      </trkpt>
      <trkpt lat="48.76778" lon="-0.09118">
        <ele>174.2</ele>
        <time>2019-01-21T19:16:48Z</time>
      </trkpt>
      <trkpt lat="48.76683" lon="-0.09336">
        <ele>177</ele>
        <time>2019-01-21T19:16:56Z</time>
      </trkpt>
      <trkpt lat="48.76674" lon="-0.09383">
        <ele>177.2</ele>
        <time>2019-01-21T19:17:15Z</time>
      </trkpt>
      <trkpt lat="48.76676" lon="-0.09433">
        <ele>178</ele>
        <time>2019-01-21T19:17:29Z</time>
      </trkpt>
      <trkpt lat="48.76681" lon="-0.09477">
        <ele>178.6</ele>
        <time>2019-01-21T19:17:38Z</time>
      </trkpt>
      <trkpt lat="48.7669" lon="-0.09515">
        <ele>179.5</ele>
        <time>2019-01-21T19:17:45Z</time>
      </trkpt>
      <trkpt lat="48.76693" lon="-0.09573">
        <ele>181.5</ele>
        <time>2019-01-21T19:18:03Z</time>
      </trkpt>
      <trkpt lat="48.76688" lon="-0.09622">
        <ele>182.1</ele>
        <time>2019-01-21T19:18:09Z</time>
      </trkpt>
      <trkpt lat="48.76674" lon="-0.0968">
        <ele>181.3</ele>
        <time>2019-01-21T19:18:29Z</time>
      </trkpt>
      <trkpt lat="48.76641" lon="-0.09777">
        <ele>183.7</ele>
        <time>2019-01-21T19:18:36Z</time>
      </trkpt>
      <trkpt lat="48.76632" lon="-0.09824">
        <ele>181.5</ele>
        <time>2019-01-21T19:18:41Z</time>
      </trkpt>
      <trkpt lat="48.76626" lon="-0.09934">
        <ele>180</ele>
        <time>2019-01-21T19:19:01Z</time>
      </trkpt>
      <trkpt lat="48.76622" lon="-0.10018">
        <ele>179.2</ele>
        <time>2019-01-21T19:19:09Z</time>
      </trkpt>
      <trkpt lat="48.76608" lon="-0.10335">
        <ele>179</ele>
        <time>2019-01-21T19:19:15Z</time>
      </trkpt>
      <trkpt lat="48.766" lon="-0.10428">
        <ele>178.4</ele>
        <time>2019-01-21T19:19:35Z</time>
      </trkpt>
      <trkpt lat="48.76578" lon="-0.10583">
        <ele>178.2</ele>
        <time>2019-01-21T19:19:55Z</time>
      </trkpt>
      <trkpt lat="48.76568" lon="-0.10612">
        <ele>178.5</ele>
        <time>2019-01-21T19:20:02Z</time>
      </trkpt>
      <trkpt lat="48.76515" lon="-0.10693">
        <ele>179.5</ele>
        <time>2019-01-21T19:20:13Z</time>
      </trkpt>
      <trkpt lat="48.76501" lon="-0.10725">
        <ele>180</ele>
        <time>2019-01-21T19:20:15Z</time>
      </trkpt>
      <trkpt lat="48.76492" lon="-0.10753">
        <ele>180.3</ele>
        <time>2019-01-21T19:20:22Z</time>
      </trkpt>
      <trkpt lat="48.76476" lon="-0.10826">
        <ele>181.9</ele>
        <time>2019-01-21T19:20:31Z</time>
      </trkpt>
      <trkpt lat="48.7645" lon="-0.1093">
        <ele>182.8</ele>
        <time>2019-01-21T19:20:38Z</time>
      </trkpt>
      <trkpt lat="48.76452" lon="-0.1094">
        <ele>182.7</ele>
        <time>2019-01-21T19:20:41Z</time>
      </trkpt>
      <trkpt lat="48.76563" lon="-0.11099">
        <ele>179.9</ele>
        <time>2019-01-21T19:20:43Z</time>
      </trkpt>
      <trkpt lat="48.76562" lon="-0.11127">
        <ele>180</ele>
        <time>2019-01-21T19:20:54Z</time>
      </trkpt>
      <trkpt lat="48.76548" lon="-0.11167">
        <ele>180.3</ele>
        <time>2019-01-21T19:20:56Z</time>
      </trkpt>
      <trkpt lat="48.7654" lon="-0.11195">
        <ele>180.6</ele>
        <time>2019-01-21T19:21:12Z</time>
      </trkpt>
      <trkpt lat="48.76576" lon="-0.11234">
        <ele>181.1</ele>
        <time>2019-01-21T19:21:22Z</time>
      </trkpt>
      <trkpt lat="48.7659" lon="-0.11252">
        <ele>181.5</ele>
        <time>2019-01-21T19:21:37Z</time>
      </trkpt>
      <trkpt lat="48.76604" lon="-0.11296">
        <ele>182.9</ele>
        <time>2019-01-21T19:21:56Z</time>
      </trkpt>
      <trkpt lat="48.76591" lon="-0.11345">
        <ele>183.6</ele>
        <time>2019-01-21T19:22:02Z</time>
      </trkpt>
      <trkpt lat="48.76584" lon="-0.11387">
        <ele>184</ele>
        <time>2019-01-21T19:22:13Z</time>
      </trkpt>
      <trkpt lat="48.76588" lon="-0.11472">
        <ele>186.2</ele>
        <time>2019-01-21T19:22:32Z</time>
      </trkpt>
      <trkpt lat="48.76581" lon="-0.1156">
        <ele>186.2</ele>
        <time>2019-01-21T19:22:41Z</time>
      </trkpt>
      <trkpt lat="48.76568" lon="-0.11627">
        <ele>188</ele>
        <time>2019-01-21T19:22:50Z</time>
      </trkpt>
      <trkpt lat="48.76563" lon="-0.11669">
        <ele>188.3</ele>
        <time>2019-01-21T19:23:02Z</time>
      </trkpt>
      <trkpt lat="48.76546" lon="-0.11714">
        <ele>187.5</ele>
        <time>2019-01-21T19:23:14Z</time>
      </trkpt>
      <trkpt lat="48.76532" lon="-0.11758">
        <ele>187</ele>
        <time>2019-01-21T19:23:30Z</time>
      </trkpt>
      <trkpt lat="48.76522" lon="-0.11818">
        <ele>187.6</ele>
        <time>2019-01-21T19:23:41Z</time>
      </trkpt>
      <trkpt lat="48.76448" lon="-0.12091">
        <ele>192</ele>
        <time>2019-01-21T19:23:47Z</time>
      </trkpt>
      <trkpt lat="48.76415" lon="-0.12197">
        <ele>193.1</ele>
        <time>2019-01-21T19:23:50Z</time>
      </trkpt>
      <trkpt lat="48.76403" lon="-0.12224">
        <ele>194.6</ele>
        <time>2019-01-21T19:24:05Z</time>
      </trkpt>
      <trkpt lat="48.7639" lon="-0.12233">
        <ele>195.4</ele>
        <time>2019-01-21T19:24:18Z</time>
      </trkpt>
      <trkpt lat="48.76346" lon="-0.12243">
        <ele>196.5</ele>
        <time>2019-01-21T19:24:24Z</time>
      </trkpt>
      <trkpt lat="48.76335" lon="-0.12257">
        <ele>197.2</ele>
        <time>2019-01-21T19:24:40Z</time>
      </trkpt>
      <trkpt lat="48.76322" lon="-0.12281">
        <ele>197.3</ele>
        <time>2019-01-21T19:24:49Z</time>
      </trkpt>
      <trkpt lat="48.76305" lon="-0.12336">
        <ele>199.1</ele>
        <time>2019-01-21T19:24:55Z</time>
      </trkpt>
      <trkpt lat="48.76289" lon="-0.1237">
        <ele>200.3</ele>
        <time>2019-01-21T19:25:01Z</time>
      </trkpt>
      <trkpt lat="48.76245" lon="-0.12435">
        <ele>203</ele>
        <time>2019-01-21T19:25:11Z</time>
      </trkpt>
      <trkpt lat="48.76193" lon="-0.1253">
        <ele>205</ele>
        <time>2019-01-21T19:25:20Z</time>
      </trkpt>
      <trkpt lat="48.76136" lon="-0.12623">
        <ele>207.2</ele>
        <time>2019-01-21T19:25:23Z</time>
      </trkpt>
      <trkpt lat="48.76116" lon="-0.12661">
        <ele>207</ele>
        <time>2019-01-21T19:25:43Z</time>
      </trkpt>
      <trkpt lat="48.76032" lon="-0.12901">
        <ele>213.4</ele>
        <time>2019-01-21T19:25:59Z</time>
      </trkpt>
      <trkpt lat="48.75983" lon="-0.13087">
        <ele>220.1</ele>
        <time>2019-01-21T19:26:14Z</time>
      </trkpt>
      <trkpt lat="48.75982" lon="-0.13118">
        <ele>220.8</ele>
        <time>2019-01-21T19:26:28Z</time>
      </trkpt>
      <trkpt lat="48.75985" lon="-0.13175">
        <ele>221</ele>
        <time>2019-01-21T19:26:46Z</time>
      </trkpt>
      <trkpt lat="48.75995" lon="-0.13257">
        <ele>220.1</ele>
        <time>2019-01-21T19:26:57Z</time>
      </trkpt>
      <trkpt lat="48.75998" lon="-0.13417">
        <ele>217.1</ele>
        <time>2019-01-21T19:27:05Z</time>
      </trkpt>
      <trkpt lat="48.75998" lon="-0.13458">
        <ele>217.1</ele>
        <time>2019-01-21T19:27:14Z</time>
      </trkpt>
      <trkpt lat="48.75996" lon="-0.13498">
        <ele>217</ele>
        <time>2019-01-21T19:27:23Z</time>
      </trkpt>
      <trkpt lat="48.76096" lon="-0.13526">
        <ele>219.9</ele>
        <time>2019-01-21T19:27:25Z</time>
      </trkpt>
      <trkpt lat="48.76241" lon="-0.13572">
        <ele>227.8</ele>
        <time>2019-01-21T19:27:43Z</time>
      </trkpt>
      <trkpt lat="48.76499" lon="-0.13646">
        <ele>236.1</ele>
        <time>2019-01-21T19:27:53Z</time>
      </trkpt>
      <trkpt lat="48.76521" lon="-0.13657">
        <ele>236</ele>
        <time>2019-01-21T19:28:12Z</time>
      </trkpt>
      <trkpt lat="48.7661" lon="-0.13709">
        <ele>234.9</ele>
        <time>2019-01-21T19:28:23Z</time>
      </trkpt>
      <trkpt lat="48.76755" lon="-0.13801">
        <ele>233.4</ele>
        <time>2019-01-21T19:28:25Z</time>
      </trkpt>
      <trkpt lat="48.76788" lon="-0.1383">
        <ele>234.4</ele>
        <time>2019-01-21T19:28:31Z</time>
      </trkpt>
      <trkpt lat="48.76818" lon="-0.13866">
        <ele>234.4</ele>
        <time>2019-01-21T19:28:33Z</time>
      </trkpt>
      <trkpt lat="48.76835" lon="-0.13891">
        <ele>235</ele>
        <time>2019-01-21T19:28:50Z</time>
      </trkpt>
      <trkpt lat="48.77176" lon="-0.14554">
        <ele>244.4</ele>
        <time>2019-01-21T19:28:56Z</time>
      </trkpt>
      <trkpt lat="48.77212" lon="-0.1464">
        <ele>245.6</ele>
        <time>2019-01-21T19:29:04Z</time>
      </trkpt>
      <trkpt lat="48.77232" lon="-0.14723">
        <ele>246</ele>
        <time>2019-01-21T19:29:09Z</time>
      </trkpt>
      <trkpt lat="48.77276" lon="-0.15232">
        <ele>245.6</ele>
        <time>2019-01-21T19:29:24Z</time>
      </trkpt>
      <trkpt lat="48.77352" lon="-0.16116">
        <ele>247.1</ele>
        <time>2019-01-21T19:29:26Z</time>
      </trkpt>
      <trkpt lat="48.77432" lon="-0.17005">
        <ele>247.9</ele>
        <time>2019-01-21T19:29:44Z</time>
      </trkpt>
      <trkpt lat="48.77446" lon="-0.17165">
        <ele>247</ele>
        <time>2019-01-21T19:29:47Z</time>
      </trkpt>
      <trkpt lat="48.77463" lon="-0.17354">
        <ele>244.2</ele>
        <time>2019-01-21T19:29:58Z</time>
      </trkpt>
      <trkpt lat="48.77467" lon="-0.17383">
        <ele>243.2</ele>
        <time>2019-01-21T19:30:13Z</time>
      </trkpt>
      <trkpt lat="48.77477" lon="-0.17442">
        <ele>242</ele>
        <time>2019-01-21T19:30:19Z</time>
      </trkpt>
      <trkpt lat="48.77491" lon="-0.17494">
        <ele>240.2</ele>
        <time>2019-01-21T19:30:28Z</time>
      </trkpt>
      <trkpt lat="48.77651" lon="-0.17955">
        <ele>230.3</ele>
        <time>2019-01-21T19:30:44Z</time>
      </trkpt>
      <trkpt lat="48.77827" lon="-0.18448">
        <ele>237.8</ele>
        <time>2019-01-21T19:30:57Z</time>
      </trkpt>
      <trkpt lat="48.77867" lon="-0.1856">
        <ele>239</ele>
        <time>2019-01-21T19:31:07Z</time>
      </trkpt>
      <trkpt lat="48.77887" lon="-0.18635">
        <ele>238.9</ele>
        <time>2019-01-21T19:31:14Z</time>
      </trkpt>
      <trkpt lat="48.77889" lon="-0.18677">
        <ele>238.6</ele>
        <time>2019-01-21T19:31:26Z</time>
      </trkpt>
      <trkpt lat="48.77884" lon="-0.18732">
        <ele>238</ele>
        <time>2019-01-21T19:31:40Z</time>
      </trkpt>
      <trkpt lat="48.77812" lon="-0.18949">
        <ele>234</ele>
        <time>2019-01-21T19:31:48Z</time>
      </trkpt>
      <trkpt lat="48.77785" lon="-0.19009">
        <ele>233</ele>
        <time>2019-01-21T19:32:01Z</time>
      </trkpt>
      <trkpt lat="48.77633" lon="-0.19241">
        <ele>230.5</ele>
        <time>2019-01-21T19:32:08Z</time>
      </trkpt>
      <trkpt lat="48.77603" lon="-0.19292">
        <ele>230.1</ele>
        <time>2019-01-21T19:32:15Z</time>
      </trkpt>
      <trkpt lat="48.7757" lon="-0.19356">
        <ele>230</ele>
        <time>2019-01-21T19:32:30Z</time>
      </trkpt>
      <trkpt lat="48.77502" lon="-0.19542">
        <ele>228</ele>
        <time>2019-01-21T19:32:32Z</time>
      </trkpt>
      <trkpt lat="48.77426" lon="-0.19747">
        <ele>229.7</ele>
        <time>2019-01-21T19:32:44Z</time>
      </trkpt>
      <trkpt lat="48.77387" lon="-0.19858">
        <ele>230.1</ele>
        <time>2019-01-21T19:32:48Z</time>
      </trkpt>
      <trkpt lat="48.77369" lon="-0.1998">
        <ele>233.5</ele>
        <time>2019-01-21T19:33:05Z</time>
      </trkpt>
      <trkpt lat="48.77353" lon="-0.20142">
        <ele>237.6</ele>
        <time>2019-01-21T19:33:15Z</time>
      </trkpt>
      <trkpt lat="48.77341" lon="-0.20199">
        <ele>238.4</ele>
        <time>2019-01-21T19:33:29Z</time>
      </trkpt>
      <trkpt lat="48.77325" lon="-0.20244">
        <ele>239.6</ele>
        <time>2019-01-21T19:33:32Z</time>
      </trkpt>
      <trkpt lat="48.773" lon="-0.203">
        <ele>241</ele>
        <time>2019-01-21T19:33:42Z</time>
      </trkpt>
      <trkpt lat="48.77276" lon="-0.20353">
        <ele>242.1</ele>
        <time>2019-01-21T19:33:58Z</time>
      </trkpt>
      <trkpt lat="48.77238" lon="-0.20428">
        <ele>244.5</ele>
        <time>2019-01-21T19:34:05Z</time>
      </trkpt>
      <trkpt lat="48.77223" lon="-0.2047">
        <ele>245</ele>
        <time>2019-01-21T19:34:18Z</time>
      </trkpt>
      <trkpt lat="48.77192" lon="-0.20587">
        <ele>244.8</ele>
        <time>2019-01-21T19:34:23Z</time>
      </trkpt>
      <trkpt lat="48.77095" lon="-0.21052">
        <ele>244.4</ele>
        <time>2019-01-21T19:34:42Z</time>
      </trkpt>
      <trkpt lat="48.77057" lon="-0.21177">
        <ele>245.4</ele>
        <time>2019-01-21T19:34:49Z</time>
      </trkpt>
      <trkpt lat="48.77049" lon="-0.21202">
        <ele>245.7</ele>
        <time>2019-01-21T19:35:04Z</time>
      </trkpt>
      <trkpt lat="48.7699" lon="-0.21367">
        <ele>242.9</ele>
        <time>2019-01-21T19:35:11Z</time>
      </trkpt>
      <trkpt lat="48.76941" lon="-0.21513">
        <ele>237.6</ele>
        <time>2019-01-21T19:35:14Z</time>
      </trkpt>
      <trkpt lat="48.76835" lon="-0.21777">
        <ele>222.9</ele>
        <time>2019-01-21T19:35:26Z</time>
      </trkpt>
      <trkpt lat="48.76771" lon="-0.21921">
        <ele>217.1</ele>
        <time>2019-01-21T19:35:31Z</time>
      </trkpt>
      <trkpt lat="48.76736" lon="-0.21985">
        <ele>214.5</ele>
        <time>2019-01-21T19:35:44Z</time>
      </trkpt>
      <trkpt lat="48.76391" lon="-0.22556">
        <ele>202.2</ele>
        <time>2019-01-21T19:35:51Z</time>
      </trkpt>
      <trkpt lat="48.76197" lon="-0.22872">
        <ele>187.2</ele>
        <time>2019-01-21T19:36:03Z</time>
      </trkpt>
      <trkpt lat="48.7612" lon="-0.23015">
        <ele>179</ele>
        <time>2019-01-21T19:36:21Z</time>
      </trkpt>
      <trkpt lat="48.75975" lon="-0.23301">
        <ele>172.2</ele>
        <time>2019-01-21T19:36:23Z</time>
      </trkpt>
      <trkpt lat="48.75915" lon="-0.23423">
        <ele>169.3</ele>
        <time>2019-01-21T19:36:29Z</time>
      </trkpt>
      <trkpt lat="48.75902" lon="-0.23456">
        <ele>169.4</ele>
        <time>2019-01-21T19:36:45Z</time>
      </trkpt>
      <trkpt lat="48.75894" lon="-0.23483">
        <ele>167.4</ele>
        <time>2019-01-21T19:36:55Z</time>
      </trkpt>
      <trkpt lat="48.7589" lon="-0.23509">
        <ele>165.7</ele>
        <time>2019-01-21T19:37:10Z</time>
      </trkpt>
      <trkpt lat="48.75888" lon="-0.23583">
        <ele>163.1</ele>
        <time>2019-01-21T19:37:23Z</time>
      </trkpt>
      <trkpt lat="48.75888" lon="-0.23678">
        <ele>158.7</ele>
        <time>2019-01-21T19:37:38Z</time>
      </trkpt>
      <trkpt lat="48.7589" lon="-0.24163">
        <ele>139.8</ele>
        <time>2019-01-21T19:37:49Z</time>
      </trkpt>
      <trkpt lat="48.75898" lon="-0.24224">
        <ele>135.2</ele>
        <time>2019-01-21T19:37:55Z</time>
      </trkpt>
      <trkpt lat="48.75924" lon="-0.2429">
        <ele>134</ele>
        <time>2019-01-21T19:38:12Z</time>
      </trkpt>
      <trkpt lat="48.7597" lon="-0.24364">
        <ele>133.1</ele>
        <time>2019-01-21T19:38:28Z</time>
      </trkpt>
      <trkpt lat="48.75993" lon="-0.24388">
        <ele>132.9</ele>
        <time>2019-01-21T19:38:30Z</time>
      </trkpt>
      <trkpt lat="48.76022" lon="-0.24398">
        <ele>132.9</ele>
        <time>2019-01-21T19:38:36Z</time>
      </trkpt>
      <trkpt lat="48.76055" lon="-0.24396">
        <ele>133.3</ele>
        <time>2019-01-21T19:38:52Z</time>
      </trkpt>
      <trkpt lat="48.76083" lon="-0.24389">
        <ele>133</ele>
        <time>2019-01-21T19:39:00Z</time>
      </trkpt>
      <trkpt lat="48.76333" lon="-0.24345">
        <ele>127.6</ele>
        <time>2019-01-21T19:39:05Z</time>
      </trkpt>
      <trkpt lat="48.76386" lon="-0.24381">
        <ele>127.9</ele>
        <time>2019-01-21T19:39:20Z</time>
      </trkpt>
      <trkpt lat="48.76385" lon="-0.24405">
        <ele>127.8</ele>
        <time>2019-01-21T19:39:24Z</time>
      </trkpt>
      <trkpt lat="48.76388" lon="-0.24456">
        <ele>127.9</ele>
        <time>2019-01-21T19:39:43Z</time>
      </trkpt>
      <trkpt lat="48.7639" lon="-0.24479">
        <ele>127.7</ele>
        <time>2019-01-21T19:40:02Z</time>
      </trkpt>
      <trkpt lat="48.76395" lon="-0.24501">
        <ele>127</ele>
        <time>2019-01-21T19:40:09Z</time>
      </trkpt>
    </trkseg>
  </trk>
</gpx>